sensor_id;sensor_type;location;lat;lon;timestamp;P1;durP1;ratioP1;P2;durP2;ratioP2
15096;SDS011;7649;52.084;7.478;2022-11-15T00:01:08;12.63;;;11.20;;
15096;SDS011;7649;52.084;7.478;2022-11-15T00:03:36;12.50;;;11.20;;
15096;SDS011;7649;52.084;7.478;2022-11-15T00:06:04;12.57;;;11.33;;
15096;SDS011;7649;52.084;7.478;2022-11-15T00:08:32;13.20;;;11.87;;
15096;SDS011;7649;52.084;7.478;2022-11-15T00:11:02;13.07;;;11.60;;
15096;SDS011;7649;52.084;7.478;2022-11-15T00:13:30;12.00;;;10.20;;
15096;SDS011;7649;52.084;7.478;2022-11-15T00:16:01;12.33;;;11.00;;
15096;SDS011;7649;52.084;7.478;2022-11-15T00:18:29;12.73;;;10.97;;
15096;SDS011;7649;52.084;7.478;2022-11-15T00:21:02;12.43;;;11.13;;
15096;SDS011;7649;52.084;7.478;2022-11-15T00:23:31;15.10;;;11.57;;
15096;SDS011;7649;52.084;7.478;2022-11-15T00:25:59;13.33;;;11.97;;
15096;SDS011;7649;52.084;7.478;2022-11-15T00:28:27;12.50;;;10.83;;
15096;SDS011;7649;52.084;7.478;2022-11-15T00:31:00;13.87;;;11.43;;
15096;SDS011;7649;52.084;7.478;2022-11-15T00:33:29;12.43;;;11.13;;
15096;SDS011;7649;52.084;7.478;2022-11-15T00:36:01;12.37;;;10.87;;
15096;SDS011;7649;52.084;7.478;2022-11-15T00:38:31;15.03;;;11.30;;
15096;SDS011;7649;52.084;7.478;2022-11-15T00:41:00;12.80;;;10.23;;
15096;SDS011;7649;52.084;7.478;2022-11-15T00:43:34;11.70;;;10.43;;
15096;SDS011;7649;52.084;7.478;2022-11-15T00:46:04;12.47;;;11.20;;
15096;SDS011;7649;52.084;7.478;2022-11-15T00:48:34;11.63;;;10.40;;
15096;SDS011;7649;52.084;7.478;2022-11-15T00:51:02;11.33;;;10.13;;
15096;SDS011;7649;52.084;7.478;2022-11-15T00:53:30;11.77;;;10.50;;
15096;SDS011;7649;52.084;7.478;2022-11-15T00:55:59;11.73;;;10.53;;
15096;SDS011;7649;52.084;7.478;2022-11-15T00:58:27;12.63;;;10.30;;
15096;SDS011;7649;52.084;7.478;2022-11-15T01:00:56;11.67;;;10.47;;
15096;SDS011;7649;52.084;7.478;2022-11-15T01:03:25;10.83;;;9.73;;
15096;SDS011;7649;52.084;7.478;2022-11-15T01:05:56;11.13;;;9.93;;
15096;SDS011;7649;52.084;7.478;2022-11-15T01:08:26;11.57;;;10.30;;
15096;SDS011;7649;52.084;7.478;2022-11-15T01:10:59;12.27;;;10.50;;
15096;SDS011;7649;52.084;7.478;2022-11-15T01:13:29;10.97;;;9.87;;
15096;SDS011;7649;52.084;7.478;2022-11-15T01:15:58;11.80;;;10.60;;
15096;SDS011;7649;52.084;7.478;2022-11-15T01:18:27;12.13;;;10.53;;
15096;SDS011;7649;52.084;7.478;2022-11-15T01:20:56;12.03;;;10.73;;
15096;SDS011;7649;52.084;7.478;2022-11-15T01:23:24;11.73;;;10.57;;
15096;SDS011;7649;52.084;7.478;2022-11-15T01:25:52;10.87;;;9.77;;
15096;SDS011;7649;52.084;7.478;2022-11-15T01:28:20;10.80;;;9.77;;
15096;SDS011;7649;52.084;7.478;2022-11-15T01:30:48;13.00;;;10.47;;
15096;SDS011;7649;52.084;7.478;2022-11-15T01:33:17;12.47;;;9.83;;
15096;SDS011;7649;52.084;7.478;2022-11-15T01:35:46;11.20;;;9.83;;
15096;SDS011;7649;52.084;7.478;2022-11-15T01:38:15;10.33;;;9.27;;
15096;SDS011;7649;52.084;7.478;2022-11-15T01:40:43;10.67;;;9.57;;
15096;SDS011;7649;52.084;7.478;2022-11-15T01:43:21;12.20;;;9.73;;
15096;SDS011;7649;52.084;7.478;2022-11-15T01:45:51;11.07;;;9.47;;
15096;SDS011;7649;52.084;7.478;2022-11-15T01:48:20;12.00;;;9.40;;
15096;SDS011;7649;52.084;7.478;2022-11-15T01:50:50;9.87;;;8.97;;
15096;SDS011;7649;52.084;7.478;2022-11-15T01:53:19;11.00;;;9.43;;
15096;SDS011;7649;52.084;7.478;2022-11-15T01:55:49;11.13;;;9.33;;
15096;SDS011;7649;52.084;7.478;2022-11-15T01:58:18;10.27;;;9.27;;
15096;SDS011;7649;52.084;7.478;2022-11-15T02:00:46;9.43;;;8.53;;
15096;SDS011;7649;52.084;7.478;2022-11-15T02:03:15;10.53;;;9.47;;
15096;SDS011;7649;52.084;7.478;2022-11-15T02:05:44;10.93;;;9.43;;
15096;SDS011;7649;52.084;7.478;2022-11-15T02:08:13;10.50;;;9.40;;
15096;SDS011;7649;52.084;7.478;2022-11-15T02:10:46;11.37;;;10.03;;
15096;SDS011;7649;52.084;7.478;2022-11-15T02:13:14;10.20;;;9.20;;
15096;SDS011;7649;52.084;7.478;2022-11-15T02:15:44;9.80;;;8.80;;
15096;SDS011;7649;52.084;7.478;2022-11-15T02:18:18;10.73;;;9.40;;
15096;SDS011;7649;52.084;7.478;2022-11-15T02:21:03;10.07;;;9.10;;
15096;SDS011;7649;52.084;7.478;2022-11-15T02:29:10;9.77;;;8.87;;
15096;SDS011;7649;52.084;7.478;2022-11-15T02:31:41;10.70;;;9.17;;
15096;SDS011;7649;52.084;7.478;2022-11-15T02:34:14;9.07;;;8.27;;
15096;SDS011;7649;52.084;7.478;2022-11-15T02:36:49;10.77;;;8.87;;
15096;SDS011;7649;52.084;7.478;2022-11-15T02:39:18;11.13;;;9.83;;
15096;SDS011;7649;52.084;7.478;2022-11-15T02:41:50;10.70;;;9.53;;
15096;SDS011;7649;52.084;7.478;2022-11-15T02:44:23;10.80;;;8.77;;
15096;SDS011;7649;52.084;7.478;2022-11-15T02:46:53;10.47;;;9.30;;
15096;SDS011;7649;52.084;7.478;2022-11-15T02:49:40;12.03;;;9.30;;
15096;SDS011;7649;52.084;7.478;2022-11-15T02:52:13;11.33;;;9.77;;
15096;SDS011;7649;52.084;7.478;2022-11-15T02:54:42;11.80;;;9.07;;
15096;SDS011;7649;52.084;7.478;2022-11-15T02:57:11;9.23;;;8.20;;
15096;SDS011;7649;52.084;7.478;2022-11-15T02:59:43;9.80;;;8.90;;
15096;SDS011;7649;52.084;7.478;2022-11-15T03:02:18;9.60;;;8.67;;
15096;SDS011;7649;52.084;7.478;2022-11-15T03:04:51;11.83;;;9.27;;
15096;SDS011;7649;52.084;7.478;2022-11-15T03:07:22;10.67;;;9.10;;
15096;SDS011;7649;52.084;7.478;2022-11-15T03:09:53;10.50;;;8.87;;
15096;SDS011;7649;52.084;7.478;2022-11-15T03:12:24;10.93;;;9.87;;
15096;SDS011;7649;52.084;7.478;2022-11-15T03:14:56;9.83;;;8.80;;
15096;SDS011;7649;52.084;7.478;2022-11-15T03:17:27;9.47;;;8.47;;
15096;SDS011;7649;52.084;7.478;2022-11-15T03:19:57;12.07;;;9.37;;
15096;SDS011;7649;52.084;7.478;2022-11-15T03:22:27;11.10;;;8.60;;
15096;SDS011;7649;52.084;7.478;2022-11-15T03:24:57;9.47;;;8.57;;
15096;SDS011;7649;52.084;7.478;2022-11-15T03:27:27;11.23;;;9.37;;
15096;SDS011;7649;52.084;7.478;2022-11-15T03:29:58;10.63;;;8.70;;
15096;SDS011;7649;52.084;7.478;2022-11-15T03:32:29;9.60;;;8.50;;
15096;SDS011;7649;52.084;7.478;2022-11-15T03:35:00;11.03;;;8.33;;
15096;SDS011;7649;52.084;7.478;2022-11-15T03:37:30;11.67;;;9.30;;
15096;SDS011;7649;52.084;7.478;2022-11-15T03:40:00;9.40;;;8.20;;
15096;SDS011;7649;52.084;7.478;2022-11-15T03:42:30;10.13;;;9.10;;
15096;SDS011;7649;52.084;7.478;2022-11-15T03:45:02;9.97;;;8.80;;
15096;SDS011;7649;52.084;7.478;2022-11-15T03:47:32;10.37;;;8.97;;
15096;SDS011;7649;52.084;7.478;2022-11-15T03:50:03;10.00;;;9.00;;
15096;SDS011;7649;52.084;7.478;2022-11-15T03:52:33;10.30;;;8.47;;
15096;SDS011;7649;52.084;7.478;2022-11-15T03:55:03;10.03;;;9.03;;
15096;SDS011;7649;52.084;7.478;2022-11-15T03:57:31;11.70;;;8.77;;
15096;SDS011;7649;52.084;7.478;2022-11-15T04:00:00;9.83;;;8.53;;
15096;SDS011;7649;52.084;7.478;2022-11-15T04:02:28;9.47;;;8.57;;
15096;SDS011;7649;52.084;7.478;2022-11-15T04:04:58;11.87;;;9.10;;
15096;SDS011;7649;52.084;7.478;2022-11-15T04:07:26;10.47;;;8.70;;
15096;SDS011;7649;52.084;7.478;2022-11-15T04:09:55;9.80;;;8.50;;
15096;SDS011;7649;52.084;7.478;2022-11-15T04:12:29;10.17;;;8.53;;
15096;SDS011;7649;52.084;7.478;2022-11-15T04:15:01;10.50;;;8.53;;
15096;SDS011;7649;52.084;7.478;2022-11-15T04:17:37;12.23;;;9.23;;
15096;SDS011;7649;52.084;7.478;2022-11-15T04:20:07;11.70;;;9.30;;
15096;SDS011;7649;52.084;7.478;2022-11-15T04:23:09;9.63;;;8.37;;
15096;SDS011;7649;52.084;7.478;2022-11-15T04:25:56;9.37;;;8.47;;
15096;SDS011;7649;52.084;7.478;2022-11-15T04:28:25;9.20;;;8.33;;
15096;SDS011;7649;52.084;7.478;2022-11-15T04:30:54;11.17;;;9.17;;
15096;SDS011;7649;52.084;7.478;2022-11-15T04:33:22;10.00;;;8.03;;
15096;SDS011;7649;52.084;7.478;2022-11-15T04:35:52;9.63;;;8.27;;
15096;SDS011;7649;52.084;7.478;2022-11-15T04:38:40;9.50;;;8.33;;
15096;SDS011;7649;52.084;7.478;2022-11-15T04:41:08;9.70;;;8.53;;
15096;SDS011;7649;52.084;7.478;2022-11-15T04:43:36;9.20;;;8.20;;
15096;SDS011;7649;52.084;7.478;2022-11-15T04:46:04;10.10;;;8.90;;
15096;SDS011;7649;52.084;7.478;2022-11-15T04:48:33;9.50;;;8.57;;
15096;SDS011;7649;52.084;7.478;2022-11-15T04:51:03;12.47;;;8.53;;
15096;SDS011;7649;52.084;7.478;2022-11-15T04:53:31;10.40;;;8.70;;
15096;SDS011;7649;52.084;7.478;2022-11-15T04:56:00;9.13;;;8.23;;
15096;SDS011;7649;52.084;7.478;2022-11-15T04:58:29;9.00;;;7.83;;
15096;SDS011;7649;52.084;7.478;2022-11-15T05:00:57;9.83;;;8.00;;
15096;SDS011;7649;52.084;7.478;2022-11-15T05:03:26;9.23;;;8.03;;
15096;SDS011;7649;52.084;7.478;2022-11-15T05:06:13;9.53;;;7.83;;
15096;SDS011;7649;52.084;7.478;2022-11-15T05:08:41;9.20;;;7.53;;
15096;SDS011;7649;52.084;7.478;2022-11-15T05:11:09;9.60;;;7.53;;
15096;SDS011;7649;52.084;7.478;2022-11-15T05:13:38;8.30;;;7.50;;
15096;SDS011;7649;52.084;7.478;2022-11-15T05:16:06;8.93;;;7.67;;
15096;SDS011;7649;52.084;7.478;2022-11-15T05:18:34;8.53;;;7.70;;
15096;SDS011;7649;52.084;7.478;2022-11-15T05:21:03;9.00;;;7.63;;
15096;SDS011;7649;52.084;7.478;2022-11-15T05:23:33;10.13;;;8.33;;
15096;SDS011;7649;52.084;7.478;2022-11-15T05:26:02;9.47;;;7.87;;
15096;SDS011;7649;52.084;7.478;2022-11-15T05:28:34;10.73;;;7.60;;
15096;SDS011;7649;52.084;7.478;2022-11-15T05:31:03;8.57;;;7.67;;
15096;SDS011;7649;52.084;7.478;2022-11-15T05:33:32;10.07;;;7.53;;
15096;SDS011;7649;52.084;7.478;2022-11-15T05:36:02;11.80;;;8.77;;
15096;SDS011;7649;52.084;7.478;2022-11-15T05:38:33;9.47;;;8.37;;
15096;SDS011;7649;52.084;7.478;2022-11-15T05:41:02;8.77;;;7.83;;
15096;SDS011;7649;52.084;7.478;2022-11-15T05:43:31;9.37;;;7.67;;
15096;SDS011;7649;52.084;7.478;2022-11-15T05:46:01;11.03;;;8.07;;
15096;SDS011;7649;52.084;7.478;2022-11-15T05:48:30;8.73;;;7.43;;
15096;SDS011;7649;52.084;7.478;2022-11-15T05:50:59;9.60;;;8.57;;
15096;SDS011;7649;52.084;7.478;2022-11-15T05:53:27;8.60;;;7.70;;
15096;SDS011;7649;52.084;7.478;2022-11-15T05:55:58;9.03;;;8.10;;
15096;SDS011;7649;52.084;7.478;2022-11-15T05:58:30;9.07;;;7.70;;
15096;SDS011;7649;52.084;7.478;2022-11-15T06:00:58;11.60;;;7.80;;
15096;SDS011;7649;52.084;7.478;2022-11-15T06:03:29;8.10;;;7.30;;
15096;SDS011;7649;52.084;7.478;2022-11-15T06:06:00;9.10;;;8.10;;
15096;SDS011;7649;52.084;7.478;2022-11-15T06:08:29;8.57;;;7.43;;
15096;SDS011;7649;52.084;7.478;2022-11-15T06:11:03;8.70;;;7.77;;
15096;SDS011;7649;52.084;7.478;2022-11-15T06:13:32;9.93;;;7.70;;
15096;SDS011;7649;52.084;7.478;2022-11-15T06:16:00;10.30;;;8.07;;
15096;SDS011;7649;52.084;7.478;2022-11-15T06:18:31;8.90;;;7.90;;
15096;SDS011;7649;52.084;7.478;2022-11-15T06:21:00;9.83;;;7.93;;
15096;SDS011;7649;52.084;7.478;2022-11-15T06:23:31;8.40;;;7.50;;
15096;SDS011;7649;52.084;7.478;2022-11-15T06:26:00;8.40;;;7.57;;
15096;SDS011;7649;52.084;7.478;2022-11-15T06:28:30;8.80;;;7.63;;
15096;SDS011;7649;52.084;7.478;2022-11-15T06:31:01;9.43;;;7.87;;
15096;SDS011;7649;52.084;7.478;2022-11-15T06:33:30;9.83;;;7.97;;
15096;SDS011;7649;52.084;7.478;2022-11-15T06:36:00;8.93;;;7.93;;
15096;SDS011;7649;52.084;7.478;2022-11-15T06:38:28;10.47;;;8.33;;
15096;SDS011;7649;52.084;7.478;2022-11-15T06:41:00;10.97;;;7.77;;
15096;SDS011;7649;52.084;7.478;2022-11-15T06:43:31;10.10;;;8.07;;
15096;SDS011;7649;52.084;7.478;2022-11-15T06:46:00;10.00;;;8.27;;
15096;SDS011;7649;52.084;7.478;2022-11-15T06:48:29;9.20;;;7.90;;
15096;SDS011;7649;52.084;7.478;2022-11-15T06:50:58;9.40;;;7.83;;
15096;SDS011;7649;52.084;7.478;2022-11-15T06:53:26;9.27;;;7.27;;
15096;SDS011;7649;52.084;7.478;2022-11-15T06:55:58;8.93;;;8.00;;
15096;SDS011;7649;52.084;7.478;2022-11-15T06:58:26;10.47;;;7.60;;
15096;SDS011;7649;52.084;7.478;2022-11-15T07:00:59;9.03;;;7.70;;
15096;SDS011;7649;52.084;7.478;2022-11-15T07:03:27;8.70;;;7.70;;
15096;SDS011;7649;52.084;7.478;2022-11-15T07:05:57;9.13;;;8.00;;
15096;SDS011;7649;52.084;7.478;2022-11-15T07:08:32;8.43;;;7.53;;
15096;SDS011;7649;52.084;7.478;2022-11-15T07:11:02;9.83;;;7.70;;
15096;SDS011;7649;52.084;7.478;2022-11-15T07:13:31;9.30;;;7.90;;
15096;SDS011;7649;52.084;7.478;2022-11-15T07:16:03;11.17;;;8.53;;
15096;SDS011;7649;52.084;7.478;2022-11-15T07:18:33;9.80;;;8.57;;
15096;SDS011;7649;52.084;7.478;2022-11-15T07:21:02;10.30;;;9.20;;
15096;SDS011;7649;52.084;7.478;2022-11-15T07:23:30;9.23;;;8.20;;
15096;SDS011;7649;52.084;7.478;2022-11-15T07:25:59;8.97;;;8.17;;
15096;SDS011;7649;52.084;7.478;2022-11-15T07:28:28;9.53;;;8.63;;
15096;SDS011;7649;52.084;7.478;2022-11-15T07:30:56;9.90;;;8.23;;
15096;SDS011;7649;52.084;7.478;2022-11-15T07:33:26;11.30;;;8.30;;
15096;SDS011;7649;52.084;7.478;2022-11-15T07:35:58;9.30;;;8.33;;
15096;SDS011;7649;52.084;7.478;2022-11-15T07:38:27;8.90;;;8.00;;
15096;SDS011;7649;52.084;7.478;2022-11-15T07:40:56;9.67;;;8.67;;
15096;SDS011;7649;52.084;7.478;2022-11-15T07:43:25;9.47;;;8.33;;
15096;SDS011;7649;52.084;7.478;2022-11-15T07:45:54;9.27;;;8.30;;
15096;SDS011;7649;52.084;7.478;2022-11-15T07:48:24;9.30;;;8.37;;
15096;SDS011;7649;52.084;7.478;2022-11-15T07:51:11;9.60;;;8.60;;
15096;SDS011;7649;52.084;7.478;2022-11-15T07:53:40;9.13;;;8.23;;
15096;SDS011;7649;52.084;7.478;2022-11-15T07:56:09;9.13;;;8.33;;
15096;SDS011;7649;52.084;7.478;2022-11-15T07:58:38;9.50;;;8.50;;
15096;SDS011;7649;52.084;7.478;2022-11-15T08:01:07;9.27;;;8.33;;
15096;SDS011;7649;52.084;7.478;2022-11-15T08:03:36;9.53;;;8.60;;
15096;SDS011;7649;52.084;7.478;2022-11-15T08:06:05;9.30;;;8.40;;
15096;SDS011;7649;52.084;7.478;2022-11-15T08:08:34;9.63;;;8.73;;
15096;SDS011;7649;52.084;7.478;2022-11-15T08:11:03;9.80;;;8.90;;
15096;SDS011;7649;52.084;7.478;2022-11-15T08:13:31;9.60;;;8.03;;
15096;SDS011;7649;52.084;7.478;2022-11-15T08:16:00;9.33;;;8.30;;
15096;SDS011;7649;52.084;7.478;2022-11-15T08:18:29;10.17;;;8.43;;
15096;SDS011;7649;52.084;7.478;2022-11-15T08:20:58;10.23;;;7.87;;
15096;SDS011;7649;52.084;7.478;2022-11-15T08:23:27;9.00;;;8.20;;
15096;SDS011;7649;52.084;7.478;2022-11-15T08:26:02;9.20;;;8.27;;
15096;SDS011;7649;52.084;7.478;2022-11-15T08:28:31;8.53;;;7.80;;
15096;SDS011;7649;52.084;7.478;2022-11-15T08:30:59;8.10;;;7.30;;
15096;SDS011;7649;52.084;7.478;2022-11-15T08:33:31;7.87;;;7.17;;
15096;SDS011;7649;52.084;7.478;2022-11-15T08:36:00;7.90;;;7.10;;
15096;SDS011;7649;52.084;7.478;2022-11-15T08:38:29;8.00;;;7.20;;
15096;SDS011;7649;52.084;7.478;2022-11-15T08:41:00;8.33;;;7.23;;
15096;SDS011;7649;52.084;7.478;2022-11-15T08:43:30;7.47;;;6.87;;
15096;SDS011;7649;52.084;7.478;2022-11-15T08:46:00;8.40;;;7.37;;
15096;SDS011;7649;52.084;7.478;2022-11-15T08:48:29;7.07;;;6.43;;
15096;SDS011;7649;52.084;7.478;2022-11-15T08:51:00;7.03;;;6.43;;
15096;SDS011;7649;52.084;7.478;2022-11-15T08:53:28;6.63;;;6.03;;
15096;SDS011;7649;52.084;7.478;2022-11-15T08:55:56;7.00;;;6.40;;
15096;SDS011;7649;52.084;7.478;2022-11-15T08:58:25;6.63;;;6.03;;
15096;SDS011;7649;52.084;7.478;2022-11-15T09:00:55;6.23;;;5.63;;
15096;SDS011;7649;52.084;7.478;2022-11-15T09:03:24;5.77;;;5.27;;
15096;SDS011;7649;52.084;7.478;2022-11-15T09:05:54;5.57;;;5.10;;
15096;SDS011;7649;52.084;7.478;2022-11-15T09:08:26;5.33;;;4.70;;
15096;SDS011;7649;52.084;7.478;2022-11-15T09:11:16;5.53;;;4.63;;
15096;SDS011;7649;52.084;7.478;2022-11-15T09:13:47;4.80;;;4.40;;
15096;SDS011;7649;52.084;7.478;2022-11-15T09:16:17;4.80;;;4.20;;
15096;SDS011;7649;52.084;7.478;2022-11-15T09:18:50;3.70;;;3.40;;
15096;SDS011;7649;52.084;7.478;2022-11-15T09:21:18;3.47;;;3.17;;
15096;SDS011;7649;52.084;7.478;2022-11-15T09:23:46;3.67;;;3.30;;
15096;SDS011;7649;52.084;7.478;2022-11-15T09:26:15;4.47;;;2.90;;
15096;SDS011;7649;52.084;7.478;2022-11-15T09:28:44;4.73;;;3.30;;
15096;SDS011;7649;52.084;7.478;2022-11-15T09:31:12;3.50;;;2.80;;
15096;SDS011;7649;52.084;7.478;2022-11-15T09:33:48;3.27;;;2.97;;
15096;SDS011;7649;52.084;7.478;2022-11-15T09:36:17;2.87;;;2.60;;
15096;SDS011;7649;52.084;7.478;2022-11-15T09:38:45;3.33;;;3.03;;
15096;SDS011;7649;52.084;7.478;2022-11-15T09:41:29;2.43;;;2.30;;
15096;SDS011;7649;52.084;7.478;2022-11-15T09:44:07;2.70;;;2.50;;
15096;SDS011;7649;52.084;7.478;2022-11-15T09:46:42;2.47;;;2.27;;
15096;SDS011;7649;52.084;7.478;2022-11-15T09:49:22;2.57;;;2.33;;
15096;SDS011;7649;52.084;7.478;2022-11-15T09:51:55;2.37;;;2.17;;
15096;SDS011;7649;52.084;7.478;2022-11-15T09:54:27;2.30;;;2.10;;
15096;SDS011;7649;52.084;7.478;2022-11-15T09:57:17;3.50;;;2.40;;
15096;SDS011;7649;52.084;7.478;2022-11-15T09:59:50;2.43;;;2.23;;
15096;SDS011;7649;52.084;7.478;2022-11-15T10:02:29;3.10;;;2.40;;
15096;SDS011;7649;52.084;7.478;2022-11-15T10:05:12;1.90;;;1.80;;
15096;SDS011;7649;52.084;7.478;2022-11-15T10:07:44;1.77;;;1.60;;
15096;SDS011;7649;52.084;7.478;2022-11-15T10:10:15;1.63;;;1.50;;
15096;SDS011;7649;52.084;7.478;2022-11-15T10:12:45;2.33;;;1.33;;
15096;SDS011;7649;52.084;7.478;2022-11-15T10:15:29;0.90;;;0.90;;
15096;SDS011;7649;52.084;7.478;2022-11-15T10:18:02;1.90;;;0.97;;
15096;SDS011;7649;52.084;7.478;2022-11-15T10:20:51;3.47;;;1.27;;
15096;SDS011;7649;52.084;7.478;2022-11-15T10:23:33;1.77;;;1.07;;
15096;SDS011;7649;52.084;7.478;2022-11-15T10:26:04;1.40;;;1.10;;
15096;SDS011;7649;52.084;7.478;2022-11-15T10:28:35;1.03;;;0.70;;
15096;SDS011;7649;52.084;7.478;2022-11-15T10:31:10;1.13;;;1.03;;
15096;SDS011;7649;52.084;7.478;2022-11-15T10:33:49;2.83;;;0.90;;
15096;SDS011;7649;52.084;7.478;2022-11-15T10:36:22;4.27;;;1.57;;
15096;SDS011;7649;52.084;7.478;2022-11-15T10:38:57;1.30;;;1.00;;
15096;SDS011;7649;52.084;7.478;2022-11-15T10:41:30;1.67;;;0.93;;
15096;SDS011;7649;52.084;7.478;2022-11-15T10:44:02;1.10;;;0.90;;
15096;SDS011;7649;52.084;7.478;2022-11-15T10:46:30;3.57;;;1.40;;
15096;SDS011;7649;52.084;7.478;2022-11-15T10:49:15;2.43;;;0.93;;
15096;SDS011;7649;52.084;7.478;2022-11-15T10:51:46;2.73;;;1.23;;
15096;SDS011;7649;52.084;7.478;2022-11-15T10:54:18;0.80;;;0.80;;
15096;SDS011;7649;52.084;7.478;2022-11-15T10:56:49;3.00;;;1.67;;
15096;SDS011;7649;52.084;7.478;2022-11-15T10:59:20;2.43;;;1.17;;
15096;SDS011;7649;52.084;7.478;2022-11-15T11:01:51;2.07;;;1.30;;
15096;SDS011;7649;52.084;7.478;2022-11-15T11:04:20;1.33;;;1.20;;
15096;SDS011;7649;52.084;7.478;2022-11-15T11:06:50;1.80;;;1.20;;
15096;SDS011;7649;52.084;7.478;2022-11-15T11:09:22;1.17;;;1.03;;
15096;SDS011;7649;52.084;7.478;2022-11-15T11:11:51;2.20;;;2.00;;
15096;SDS011;7649;52.084;7.478;2022-11-15T11:14:20;3.67;;;1.50;;
15096;SDS011;7649;52.084;7.478;2022-11-15T11:16:49;1.50;;;1.40;;
15096;SDS011;7649;52.084;7.478;2022-11-15T11:19:31;2.80;;;1.20;;
15096;SDS011;7649;52.084;7.478;2022-11-15T11:22:06;2.90;;;1.60;;
15096;SDS011;7649;52.084;7.478;2022-11-15T11:24:39;1.30;;;1.20;;
15096;SDS011;7649;52.084;7.478;2022-11-15T11:27:13;1.50;;;1.40;;
15096;SDS011;7649;52.084;7.478;2022-11-15T11:29:50;2.00;;;1.43;;
15096;SDS011;7649;52.084;7.478;2022-11-15T11:35:08;2.07;;;1.43;;
15096;SDS011;7649;52.084;7.478;2022-11-15T11:37:56;3.87;;;1.70;;
15096;SDS011;7649;52.084;7.478;2022-11-15T11:40:30;2.00;;;1.47;;
15096;SDS011;7649;52.084;7.478;2022-11-15T11:43:01;1.90;;;1.80;;
15096;SDS011;7649;52.084;7.478;2022-11-15T11:45:44;2.37;;;1.37;;
15096;SDS011;7649;52.084;7.478;2022-11-15T11:48:20;8.60;;;2.23;;
15096;SDS011;7649;52.084;7.478;2022-11-15T11:50:51;1.57;;;1.10;;
15096;SDS011;7649;52.084;7.478;2022-11-15T11:53:24;1.97;;;1.17;;
15096;SDS011;7649;52.084;7.478;2022-11-15T11:55:54;1.77;;;1.33;;
15096;SDS011;7649;52.084;7.478;2022-11-15T11:58:26;1.43;;;1.07;;
15096;SDS011;7649;52.084;7.478;2022-11-15T12:00:59;1.10;;;1.00;;
15096;SDS011;7649;52.084;7.478;2022-11-15T12:03:38;1.23;;;1.10;;
15096;SDS011;7649;52.084;7.478;2022-11-15T12:06:10;1.70;;;1.30;;
15096;SDS011;7649;52.084;7.478;2022-11-15T12:08:45;0.87;;;0.80;;
15096;SDS011;7649;52.084;7.478;2022-11-15T12:11:16;1.57;;;1.00;;
15096;SDS011;7649;52.084;7.478;2022-11-15T12:13:45;1.60;;;1.10;;
15096;SDS011;7649;52.084;7.478;2022-11-15T12:16:17;2.23;;;1.10;;
15096;SDS011;7649;52.084;7.478;2022-11-15T12:18:47;5.00;;;1.40;;
15096;SDS011;7649;52.084;7.478;2022-11-15T12:21:18;1.80;;;1.03;;
15096;SDS011;7649;52.084;7.478;2022-11-15T12:23:55;3.17;;;0.90;;
15096;SDS011;7649;52.084;7.478;2022-11-15T12:26:28;2.17;;;1.33;;
15096;SDS011;7649;52.084;7.478;2022-11-15T12:28:58;1.63;;;1.00;;
15096;SDS011;7649;52.084;7.478;2022-11-15T12:31:35;1.87;;;1.23;;
15096;SDS011;7649;52.084;7.478;2022-11-15T12:34:05;2.23;;;1.20;;
15096;SDS011;7649;52.084;7.478;2022-11-15T12:36:42;2.43;;;1.30;;
15096;SDS011;7649;52.084;7.478;2022-11-15T12:39:12;2.90;;;1.20;;
15096;SDS011;7649;52.084;7.478;2022-11-15T12:41:41;1.73;;;0.80;;
15096;SDS011;7649;52.084;7.478;2022-11-15T12:44:10;5.70;;;1.43;;
15096;SDS011;7649;52.084;7.478;2022-11-15T12:52:09;0.90;;;0.90;;
15096;SDS011;7649;52.084;7.478;2022-11-15T12:54:52;3.03;;;1.10;;
15096;SDS011;7649;52.084;7.478;2022-11-15T12:57:27;0.90;;;0.90;;
15096;SDS011;7649;52.084;7.478;2022-11-15T12:59:57;1.90;;;1.13;;
15096;SDS011;7649;52.084;7.478;2022-11-15T13:02:28;1.60;;;1.20;;
15096;SDS011;7649;52.084;7.478;2022-11-15T13:07:56;1.73;;;1.43;;
15096;SDS011;7649;52.084;7.478;2022-11-15T13:10:30;1.93;;;1.30;;
15096;SDS011;7649;52.084;7.478;2022-11-15T13:13:00;2.20;;;0.97;;
15096;SDS011;7649;52.084;7.478;2022-11-15T13:21:21;2.73;;;1.00;;
15096;SDS011;7649;52.084;7.478;2022-11-15T13:24:11;1.40;;;1.30;;
15096;SDS011;7649;52.084;7.478;2022-11-15T13:26:42;6.77;;;2.27;;
15096;SDS011;7649;52.084;7.478;2022-11-15T13:29:16;1.43;;;1.13;;
15096;SDS011;7649;52.084;7.478;2022-11-15T13:31:45;1.57;;;1.20;;
15096;SDS011;7649;52.084;7.478;2022-11-15T13:34:22;2.10;;;1.53;;
15096;SDS011;7649;52.084;7.478;2022-11-15T13:37:12;1.83;;;1.50;;
15096;SDS011;7649;52.084;7.478;2022-11-15T13:39:41;1.77;;;1.50;;
15096;SDS011;7649;52.084;7.478;2022-11-15T13:42:14;1.70;;;1.43;;
15096;SDS011;7649;52.084;7.478;2022-11-15T13:44:54;1.63;;;1.50;;
15096;SDS011;7649;52.084;7.478;2022-11-15T13:47:25;1.20;;;1.10;;
15096;SDS011;7649;52.084;7.478;2022-11-15T13:49:56;1.93;;;1.17;;
15096;SDS011;7649;52.084;7.478;2022-11-15T13:52:24;6.57;;;1.33;;
15096;SDS011;7649;52.084;7.478;2022-11-15T13:54:55;1.23;;;1.13;;
15096;SDS011;7649;52.084;7.478;2022-11-15T13:57:27;1.63;;;1.53;;
15096;SDS011;7649;52.084;7.478;2022-11-15T13:59:57;2.30;;;1.30;;
15096;SDS011;7649;52.084;7.478;2022-11-15T14:02:29;2.30;;;2.00;;
15096;SDS011;7649;52.084;7.478;2022-11-15T14:04:59;4.07;;;1.77;;
15096;SDS011;7649;52.084;7.478;2022-11-15T14:07:28;2.10;;;1.10;;
15096;SDS011;7649;52.084;7.478;2022-11-15T14:09:56;11.20;;;3.30;;
15096;SDS011;7649;52.084;7.478;2022-11-15T14:12:27;1.70;;;1.30;;
15096;SDS011;7649;52.084;7.478;2022-11-15T14:14:56;1.37;;;1.13;;
15096;SDS011;7649;52.084;7.478;2022-11-15T14:17:33;1.37;;;1.20;;
15096;SDS011;7649;52.084;7.478;2022-11-15T14:20:02;3.43;;;1.37;;
15096;SDS011;7649;52.084;7.478;2022-11-15T14:22:30;2.13;;;1.10;;
15096;SDS011;7649;52.084;7.478;2022-11-15T14:30:39;1.87;;;1.33;;
15096;SDS011;7649;52.084;7.478;2022-11-15T14:33:20;2.80;;;1.47;;
15096;SDS011;7649;52.084;7.478;2022-11-15T14:35:49;1.87;;;1.03;;
15096;SDS011;7649;52.084;7.478;2022-11-15T14:38:17;2.20;;;1.20;;
15096;SDS011;7649;52.084;7.478;2022-11-15T14:40:45;1.93;;;1.70;;
15096;SDS011;7649;52.084;7.478;2022-11-15T14:43:14;3.83;;;2.73;;
15096;SDS011;7649;52.084;7.478;2022-11-15T14:45:44;3.33;;;2.50;;
15096;SDS011;7649;52.084;7.478;2022-11-15T14:48:12;2.93;;;2.40;;
15096;SDS011;7649;52.084;7.478;2022-11-15T14:50:40;5.77;;;4.20;;
15096;SDS011;7649;52.084;7.478;2022-11-15T14:53:11;2.70;;;1.70;;
15096;SDS011;7649;52.084;7.478;2022-11-15T14:55:39;1.87;;;1.77;;
15096;SDS011;7649;52.084;7.478;2022-11-15T14:58:08;2.30;;;1.40;;
15096;SDS011;7649;52.084;7.478;2022-11-15T15:00:36;1.83;;;1.20;;
15096;SDS011;7649;52.084;7.478;2022-11-15T15:03:06;1.60;;;1.10;;
15096;SDS011;7649;52.084;7.478;2022-11-15T15:05:35;1.90;;;1.20;;
15096;SDS011;7649;52.084;7.478;2022-11-15T15:08:04;1.43;;;1.33;;
15096;SDS011;7649;52.084;7.478;2022-11-15T15:10:34;1.80;;;1.50;;
15096;SDS011;7649;52.084;7.478;2022-11-15T15:13:08;2.70;;;1.80;;
15096;SDS011;7649;52.084;7.478;2022-11-15T15:15:40;2.53;;;1.80;;
15096;SDS011;7649;52.084;7.478;2022-11-15T15:18:10;4.07;;;1.87;;
15096;SDS011;7649;52.084;7.478;2022-11-15T15:20:39;4.20;;;2.47;;
15096;SDS011;7649;52.084;7.478;2022-11-15T15:23:14;2.57;;;2.30;;
15096;SDS011;7649;52.084;7.478;2022-11-15T15:25:43;4.40;;;2.77;;
15096;SDS011;7649;52.084;7.478;2022-11-15T15:28:11;4.70;;;2.20;;
15096;SDS011;7649;52.084;7.478;2022-11-15T15:30:40;2.60;;;1.80;;
15096;SDS011;7649;52.084;7.478;2022-11-15T15:33:10;8.37;;;2.50;;
15096;SDS011;7649;52.084;7.478;2022-11-15T15:35:38;4.60;;;2.77;;
15096;SDS011;7649;52.084;7.478;2022-11-15T15:38:08;3.60;;;2.47;;
15096;SDS011;7649;52.084;7.478;2022-11-15T15:40:37;2.80;;;2.40;;
15096;SDS011;7649;52.084;7.478;2022-11-15T15:43:05;2.87;;;2.30;;
15096;SDS011;7649;52.084;7.478;2022-11-15T15:45:36;2.60;;;2.13;;
15096;SDS011;7649;52.084;7.478;2022-11-15T15:48:05;5.40;;;2.73;;